VIDPVIGR

Guest
Details From VIDP - INDIRA GANDHI INTL
To VIGR - GWALIOR
Flight Number -
Tags generated
Created
Modified
Stats Distance 150 nm / 277 km
Max Altitude 11,400 ft / 3,475 m
Waypoints 3
Social Downloads 1
Likes 0
Share VATSIM

Download

Looking for another format? Having issues loading an existing format? Contact us
Advertisement - Login to hide

Notes

Basic altitude profile: - Ascent Rate: 1800ft/min - Ascent Speed: 210kts - Cruise Altitude: 34000ft - Cruise Speed: 450kts - Descent Rate: 1200ft/min - Descent Speed: 185kts Options: - Use NATs: yes - Use PACOTS: yes - Use low airways: yes - Use high airways: yes

Route

VIDP AGG VIGR

ID Type Via Altitude Latitude Longitude Leg Dist Tot Dist Heading (true) Name
O VIDP APT - 0 ft / 0 m 28.56650˚ 77.10309˚ - 0 nm - INDIRA GANDHI INTL
AGG VOR - 11,400 ft / 3,475 m 27.15075˚ 77.94753˚ 96 nm 96 nm 152° / 152° AGRA VOR-DME
O VIGR APT - 0 ft / 0 m 26.29333˚ 78.22775˚ 53 nm 149 nm 164° / 164° GWALIOR

Altitude Profile

Advertisement - Login to hide

VIDP

Details ICAO VIDP (DEL)
Name INDIRA GANDHI INTL
Region India
Timezone Asia/Kolkata (UTC+5.5)
Stats Elevation 777 ft / 237 m (AMSL)
Location 28.566496° 77.103090°
Runways 2
Magnetic Variation 1.217° E

METAR

VIDP 171030Z 29011KT 3500 HZ NSC 21/03 Q1020 NOSIG

Decode

TAF

TAF VIDP 170500Z 1706/1812 29009KT 2500 FU NSC BECMG 1706/1708 3500 HZ BECMG 1718/1720 27006KT 1500 FU BR BECMG 1723/1801 29004KT 0800 BR BECMG 1804/1805 2500 FU BECMG 1807/1809 30010KT 4000 HZ

Decode

Departure Runways

ID Width Length Bearing (true) Bearing (mag) Surface Threshold Offset Overrun Length
09 150 ft / 46 m 9,270 ft / 2,826 m 91.50° 90.28° Asphalt 0 ft / 0 m 195 ft / 59 m
10 150 ft / 46 m 12,488 ft / 3,807 m 104.67° 103.45° Asphalt 0 ft / 0 m 880 ft / 268 m
27 150 ft / 46 m 9,270 ft / 2,826 m 271.52° 270.30° Asphalt 499 ft / 152 m 0 ft / 0 m
28 150 ft / 46 m 12,488 ft / 3,807 m 284.69° 283.47° Asphalt 0 ft / 0 m 470 ft / 143 m

VIGR

Details ICAO VIGR (GWL)
Name GWALIOR
Region India
Timezone Asia/Kolkata (UTC+5.5)
Stats Elevation 617 ft / 188 m (AMSL)
Location 26.293335° 78.227754°
Runways 1
Magnetic Variation 0.748° E

METAR

VIGR 170900Z 32002KT 5000 HZ NSC 25/05 Q1020

Decode

TAF

Not found

Destination Runways

ID Width Length Bearing (true) Bearing (mag) Surface Threshold Offset Overrun Length
06 150 ft / 46 m 8,976 ft / 2,736 m 60.64° 59.89° Concrete 0 ft / 0 m 1,204 ft / 367 m
24 150 ft / 46 m 8,976 ft / 2,736 m 240.65° 239.90° Concrete 0 ft / 0 m 1,204 ft / 367 m